createdAt,value
2023-02-26T00:00:13.717Z,2.47
2023-02-26T00:02:40.260Z,2.90
2023-02-26T00:05:07.183Z,2.13
2023-02-26T00:07:33.999Z,2.60
2023-02-26T00:10:03.561Z,2.83
2023-02-26T00:12:30.907Z,2.05
2023-02-26T00:14:57.482Z,1.92
2023-02-26T00:17:45.704Z,2.15
2023-02-26T00:20:13.117Z,2.25
2023-02-26T00:22:40.605Z,2.15
2023-02-26T00:25:08.282Z,2.10
2023-02-26T00:27:34.686Z,1.67
2023-02-26T00:30:01.422Z,1.60
2023-02-26T00:32:28.907Z,1.98
2023-02-26T00:34:56.328Z,1.92
2023-02-26T00:37:40.867Z,1.98
2023-02-26T00:40:46.047Z,1.55
2023-02-26T00:43:24.357Z,2.03
2023-02-26T00:45:59.732Z,1.83
2023-02-26T00:48:44.886Z,1.75
2023-02-26T00:51:26.346Z,1.75
2023-02-26T00:54:08.891Z,1.98
2023-02-26T00:56:35.323Z,2.28
2023-02-26T00:59:01.925Z,2.35
2023-02-26T01:01:28.276Z,1.83
2023-02-26T01:03:55.853Z,1.75
2023-02-26T01:06:27.663Z,1.65
2023-02-26T01:08:59.970Z,1.50
2023-02-26T01:11:26.532Z,1.60
2023-02-26T01:13:53.309Z,1.75
2023-02-26T01:16:28.420Z,1.75
2023-02-26T01:19:05.206Z,1.65
2023-02-26T01:21:36.647Z,1.80
2023-02-26T01:24:06.329Z,2.08
2023-02-26T01:26:32.758Z,1.77
2023-02-26T01:28:59.302Z,1.95
2023-02-26T01:31:49.921Z,2.30
2023-02-26T01:34:25.861Z,2.05
2023-02-26T01:36:58.165Z,1.83
2023-02-26T01:39:38.829Z,2.28
2023-02-26T01:42:19.167Z,1.60
2023-02-26T01:45:10.841Z,1.60
2023-02-26T01:47:43.280Z,1.25
2023-02-26T01:50:16.078Z,1.52
2023-02-26T01:52:48.273Z,1.35
2023-02-26T01:55:18.859Z,1.40
2023-02-26T01:57:45.525Z,1.17
2023-02-26T02:00:12.487Z,1.52
2023-02-26T02:02:39.265Z,0.80
2023-02-26T02:05:13.724Z,1.17
2023-02-26T02:07:40.276Z,1.00
2023-02-26T02:10:07.211Z,1.17
2023-02-26T02:12:51.731Z,1.33
2023-02-26T02:15:30.748Z,1.05
2023-02-26T02:18:27.976Z,1.10
2023-02-26T02:21:21.841Z,1.50
2023-02-26T02:23:55.674Z,1.10
2023-02-26T02:26:40.337Z,1.05
2023-02-26T02:29:31.636Z,1.02
2023-02-26T02:34:45.054Z,1.05
2023-02-26T02:37:17.934Z,0.88
2023-02-26T02:39:50.479Z,1.10
2023-02-26T02:42:24.529Z,0.77
2023-02-26T02:44:58.111Z,1.42
2023-02-26T02:47:27.020Z,1.20
2023-02-26T02:50:05.121Z,1.00
2023-02-26T02:52:59.383Z,1.00
2023-02-26T02:55:31.665Z,1.13
2023-02-26T02:58:23.231Z,1.27
2023-02-26T03:00:54.829Z,1.65
2023-02-26T03:03:30.005Z,1.27
2023-02-26T03:05:56.379Z,1.10
2023-02-26T03:08:28.217Z,0.85
2023-02-26T03:10:54.591Z,1.03
2023-02-26T03:13:23.593Z,0.70
2023-02-26T03:15:52.694Z,0.82
2023-02-26T03:18:45.779Z,1.05
2023-02-26T03:21:31.733Z,1.10
2023-02-26T03:24:09.981Z,0.88
2023-02-26T03:26:48.202Z,1.00
2023-02-26T03:29:23.595Z,0.93
2023-02-26T03:32:05.241Z,0.70
2023-02-26T03:34:43.809Z,1.20
2023-02-26T03:37:26.054Z,0.88
2023-02-26T03:40:02.007Z,0.90
2023-02-26T03:42:34.470Z,0.95
2023-02-26T03:45:16.912Z,0.90
2023-02-26T03:47:48.287Z,0.95
2023-02-26T03:50:18.963Z,0.68
2023-02-26T03:52:48.550Z,0.63
2023-02-26T03:55:33.047Z,0.80
2023-02-26T03:57:59.474Z,0.75
2023-02-26T04:00:27.498Z,0.68
2023-02-26T04:03:06.835Z,1.25
2023-02-26T04:05:38.159Z,1.05
2023-02-26T04:08:04.719Z,0.85
2023-02-26T04:10:56.203Z,0.63
2023-02-26T04:13:22.653Z,0.88
2023-02-26T04:15:49.044Z,0.77
2023-02-26T04:18:15.400Z,0.70
2023-02-26T04:20:41.705Z,0.70
2023-02-26T04:23:08.082Z,0.80
2023-02-26T04:25:34.390Z,0.63
2023-02-26T04:28:00.820Z,0.88
2023-02-26T04:30:27.163Z,0.93
2023-02-26T04:32:53.509Z,1.00
2023-02-26T04:35:19.872Z,1.30
2023-02-26T04:37:46.174Z,0.70
2023-02-26T04:40:13.421Z,0.70
2023-02-26T04:42:39.762Z,0.68
2023-02-26T04:45:06.672Z,1.02
2023-02-26T04:47:33.025Z,1.02
2023-02-26T04:49:59.380Z,0.90
2023-02-26T04:52:25.812Z,1.10
2023-02-26T04:54:52.160Z,0.80
2023-02-26T04:57:18.469Z,0.82
2023-02-26T04:59:44.741Z,0.98
2023-02-26T05:02:11.047Z,0.80
2023-02-26T05:04:37.416Z,0.70
2023-02-26T05:07:03.962Z,0.63
2023-02-26T05:09:30.281Z,0.57
2023-02-26T05:11:56.590Z,0.85
2023-02-26T05:14:22.901Z,0.90
2023-02-26T05:16:49.349Z,0.55
2023-02-26T05:19:16.737Z,0.55
2023-02-26T05:21:43.028Z,0.50
2023-02-26T05:24:09.410Z,0.80
2023-02-26T05:26:36.067Z,0.88
2023-02-26T05:29:02.470Z,0.73
2023-02-26T05:31:29.748Z,1.00
2023-02-26T05:33:56.027Z,0.60
2023-02-26T05:36:22.558Z,0.80
2023-02-26T05:38:48.972Z,1.00
2023-02-26T05:41:15.391Z,0.77
2023-02-26T05:43:41.888Z,0.73
2023-02-26T05:46:08.203Z,0.60
2023-02-26T05:48:34.624Z,0.75
2023-02-26T05:51:00.966Z,0.93
2023-02-26T05:53:27.310Z,0.60
2023-02-26T05:55:53.929Z,0.60
2023-02-26T05:58:20.433Z,0.65
2023-02-26T06:00:46.898Z,0.85
2023-02-26T06:03:13.326Z,0.77
2023-02-26T06:05:39.750Z,0.70
2023-02-26T06:08:06.376Z,0.50
2023-02-26T06:10:33.457Z,0.60
2023-02-26T06:12:59.747Z,0.40
2023-02-26T06:15:26.060Z,0.77
2023-02-26T06:17:52.350Z,0.68
2023-02-26T06:20:18.704Z,0.77
2023-02-26T06:22:45.013Z,0.20
2023-02-26T06:25:12.134Z,0.40
2023-02-26T06:27:38.527Z,0.65
2023-02-26T06:30:06.013Z,0.60
2023-02-26T06:32:32.388Z,0.90
2023-02-26T06:34:58.750Z,0.47
2023-02-26T06:37:25.288Z,0.50
2023-02-26T06:39:51.718Z,0.63
2023-02-26T06:42:20.048Z,0.40
2023-02-26T06:44:46.570Z,0.63
2023-02-26T06:47:12.908Z,0.55
2023-02-26T06:49:39.225Z,0.65
2023-02-26T06:52:05.548Z,0.40
2023-02-26T06:54:31.837Z,0.40
2023-02-26T06:56:58.136Z,0.50
2023-02-26T06:59:24.677Z,0.80
2023-02-26T07:01:51.000Z,0.55
2023-02-26T07:04:19.753Z,0.70
2023-02-26T07:06:46.931Z,0.40
2023-02-26T07:09:13.304Z,0.63
2023-02-26T07:11:39.699Z,0.40
2023-02-26T07:14:06.015Z,0.30
2023-02-26T07:16:32.399Z,0.60
2023-02-26T07:18:59.088Z,0.38
2023-02-26T07:21:25.513Z,0.30
2023-02-26T07:23:51.827Z,0.50
2023-02-26T07:26:18.132Z,0.40
2023-02-26T07:28:44.494Z,0.73
2023-02-26T07:31:11.064Z,0.50
2023-02-26T07:33:39.536Z,0.40
2023-02-26T07:36:06.683Z,0.40
2023-02-26T07:38:33.144Z,0.57
2023-02-26T07:40:59.751Z,0.40
2023-02-26T07:43:26.053Z,0.70
2023-02-26T07:45:52.887Z,0.40
2023-02-26T07:48:19.869Z,0.43
2023-02-26T07:50:47.004Z,0.40
2023-02-26T07:53:13.390Z,0.40
2023-02-26T07:55:39.771Z,0.32
2023-02-26T07:58:06.108Z,0.30
2023-02-26T08:00:33.034Z,0.35
2023-02-26T08:02:59.361Z,0.63
2023-02-26T08:05:25.760Z,0.40
2023-02-26T08:07:52.112Z,0.52
2023-02-26T08:10:18.508Z,0.40
2023-02-26T08:12:44.858Z,0.40
2023-02-26T08:15:14.165Z,0.22
2023-02-26T08:17:41.555Z,0.57
2023-02-26T08:20:09.177Z,0.55
2023-02-26T08:22:35.616Z,0.60
2023-02-26T08:25:02.185Z,0.50
2023-02-26T08:27:28.499Z,0.40
2023-02-26T08:29:54.865Z,0.85
2023-02-26T08:32:22.953Z,0.60
2023-02-26T08:34:49.349Z,0.57
2023-02-26T08:37:15.685Z,0.60
2023-02-26T08:39:41.998Z,0.55
2023-02-26T08:42:09.867Z,0.17
2023-02-26T08:44:36.458Z,0.50
2023-02-26T08:47:03.635Z,0.40
2023-02-26T08:49:30.033Z,0.40
2023-02-26T08:51:56.347Z,0.77
2023-02-26T08:54:22.732Z,0.55
2023-02-26T08:56:49.078Z,0.30
2023-02-26T08:59:15.514Z,0.63
2023-02-26T09:01:41.937Z,0.43
2023-02-26T09:04:08.265Z,0.50
2023-02-26T09:06:34.568Z,0.30
2023-02-26T09:09:00.871Z,0.43
2023-02-26T09:11:30.421Z,0.50
2023-02-26T09:13:58.833Z,0.70
2023-02-26T09:16:26.189Z,0.65
2023-02-26T09:18:52.764Z,0.38
2023-02-26T09:21:19.097Z,0.60
2023-02-26T09:23:45.423Z,0.13
2023-02-26T09:26:11.990Z,0.30
2023-02-26T09:28:38.498Z,0.55
2023-02-26T09:31:07.103Z,0.20
2023-02-26T09:33:34.272Z,0.10
2023-02-26T09:36:00.795Z,0.47
2023-02-26T09:38:27.269Z,0.15
2023-02-26T09:40:58.376Z,0.20
2023-02-26T09:43:43.088Z,0.28
2023-02-26T09:46:28.643Z,0.32
2023-02-26T09:49:05.617Z,0.32
2023-02-26T09:51:35.219Z,0.35
2023-02-26T09:54:16.910Z,0.40
2023-02-26T09:56:44.308Z,0.60
2023-02-26T09:59:11.408Z,0.22
2023-02-26T10:01:59.509Z,0.40
2023-02-26T10:04:50.445Z,0.20
2023-02-26T10:07:25.829Z,0.13
2023-02-26T10:10:07.257Z,0.10
2023-02-26T10:12:36.395Z,0.20
2023-02-26T10:15:24.118Z,0.43
2023-02-26T10:18:23.747Z,0.10
2023-02-26T10:21:12.445Z,0.10
2023-02-26T10:23:44.895Z,0.20
2023-02-26T10:26:19.599Z,0.28
2023-02-26T10:28:53.633Z,0.20
2023-02-26T10:32:00.624Z,0.20
2023-02-26T10:34:40.131Z,0.50
2023-02-26T10:37:19.595Z,0.40
2023-02-26T10:40:01.688Z,0.68
2023-02-26T10:42:37.872Z,0.20
2023-02-26T10:45:39.822Z,0.20
2023-02-26T10:48:40.142Z,0.28
2023-02-26T10:51:12.945Z,0.20
2023-02-26T10:53:41.437Z,0.10
2023-02-26T10:56:20.267Z,0.10
2023-02-26T10:58:46.655Z,0.35
2023-02-26T11:01:20.878Z,0.40
2023-02-26T11:03:51.719Z,0.10
2023-02-26T11:06:24.798Z,0.15
2023-02-26T11:08:54.086Z,0.25
2023-02-26T11:11:46.722Z,0.20
2023-02-26T11:14:15.007Z,0.00
2023-02-26T11:17:03.355Z,0.40
2023-02-26T11:19:35.122Z,0.10
2023-02-26T11:22:04.229Z,0.20
2023-02-26T11:24:33.284Z,0.30
2023-02-26T11:27:04.027Z,0.10
2023-02-26T11:29:54.884Z,0.57
2023-02-26T11:32:39.567Z,0.52
2023-02-26T11:35:09.431Z,0.55
2023-02-26T11:37:40.969Z,0.20
2023-02-26T11:40:15.305Z,0.30
2023-02-26T11:42:49.356Z,0.20
2023-02-26T11:45:18.708Z,0.30
2023-02-26T11:47:47.024Z,0.22
2023-02-26T11:50:22.821Z,0.20
2023-02-26T11:52:56.842Z,0.13
2023-02-26T11:55:36.907Z,0.20
2023-02-26T11:58:14.766Z,0.30
2023-02-26T12:00:41.252Z,0.30
2023-02-26T12:03:17.759Z,0.20
2023-02-26T12:05:45.313Z,0.57
2023-02-26T12:08:30.964Z,0.20
2023-02-26T12:11:20.381Z,0.25
2023-02-26T12:13:58.664Z,0.20
2023-02-26T12:17:00.635Z,0.20
2023-02-26T12:19:45.612Z,0.55
2023-02-26T12:22:35.872Z,0.38
2023-02-26T12:25:22.104Z,0.28
2023-02-26T12:28:03.454Z,0.40
2023-02-26T12:30:50.514Z,0.20
2023-02-26T12:33:35.333Z,0.35
2023-02-26T12:36:18.675Z,0.40
2023-02-26T12:39:12.773Z,0.10
2023-02-26T12:42:07.548Z,0.28
2023-02-26T12:45:03.042Z,0.28
2023-02-26T12:47:50.787Z,0.28
2023-02-26T12:50:26.110Z,0.32
2023-02-26T12:52:58.602Z,0.30
2023-02-26T12:55:41.109Z,0.30
2023-02-26T12:58:19.630Z,0.55
2023-02-26T13:00:48.680Z,0.30
2023-02-26T13:03:24.247Z,0.55
2023-02-26T13:06:09.277Z,0.30
2023-02-26T13:08:56.095Z,0.40
2023-02-26T13:11:33.866Z,0.35
2023-02-26T13:14:12.072Z,0.35
2023-02-26T13:16:44.554Z,0.57
2023-02-26T13:19:28.632Z,0.30
2023-02-26T13:22:14.538Z,0.50
2023-02-26T13:24:50.512Z,0.30
2023-02-26T13:27:17.716Z,0.20
2023-02-26T13:30:02.614Z,0.30
2023-02-26T13:32:29.492Z,0.30
2023-02-26T13:35:07.539Z,0.30
2023-02-26T13:37:45.254Z,0.30
2023-02-26T13:40:31.882Z,0.30
2023-02-26T13:43:30.303Z,0.28
2023-02-26T13:46:14.711Z,0.40
2023-02-26T13:49:08.353Z,0.40
2023-02-26T13:51:44.244Z,0.25
2023-02-26T13:54:17.098Z,0.32
2023-02-26T13:56:48.041Z,0.63
2023-02-26T14:01:50.668Z,0.50
2023-02-26T14:04:20.098Z,0.38
2023-02-26T14:06:47.475Z,1.27
2023-02-26T14:09:22.629Z,1.17
2023-02-26T14:12:12.185Z,0.40
2023-02-26T14:15:05.537Z,0.52
2023-02-26T14:17:34.652Z,0.47
2023-02-26T14:20:15.215Z,0.30
2023-02-26T14:22:43.227Z,0.55
2023-02-26T14:25:12.700Z,0.80
2023-02-26T14:27:44.518Z,0.50
2023-02-26T14:30:10.768Z,0.55
2023-02-26T14:32:49.440Z,0.70
2023-02-26T14:35:26.143Z,0.52
2023-02-26T14:38:11.035Z,0.55
2023-02-26T14:40:43.196Z,0.50
2023-02-26T14:43:21.007Z,0.70
2023-02-26T14:45:49.515Z,0.88
2023-02-26T14:48:24.656Z,1.02
2023-02-26T14:51:18.652Z,0.70
2023-02-26T14:53:52.170Z,0.60
2023-02-26T14:56:33.578Z,0.80
2023-02-26T14:59:13.681Z,0.55
2023-02-26T15:02:02.886Z,0.70
2023-02-26T15:04:52.138Z,0.90
2023-02-26T15:07:47.834Z,1.00
2023-02-26T15:10:30.262Z,0.40
2023-02-26T15:13:24.544Z,0.40
2023-02-26T15:15:59.832Z,0.45
2023-02-26T15:18:47.356Z,0.43
2023-02-26T15:21:41.805Z,0.60
2023-02-26T15:24:11.922Z,0.82
2023-02-26T15:26:47.115Z,0.60
2023-02-26T15:29:14.811Z,0.60
2023-02-26T15:31:43.678Z,0.70
2023-02-26T15:34:16.014Z,0.73
2023-02-26T15:36:48.640Z,0.50
2023-02-26T15:39:17.449Z,0.40
2023-02-26T15:41:47.008Z,0.47
2023-02-26T15:44:23.678Z,0.80
2023-02-26T15:46:55.675Z,0.50
2023-02-26T15:49:42.422Z,0.50
2023-02-26T15:52:15.398Z,0.55
2023-02-26T15:54:45.277Z,0.47
2023-02-26T15:57:13.584Z,0.38
2023-02-26T15:59:44.035Z,0.50
2023-02-26T16:02:21.466Z,0.50
2023-02-26T16:04:47.900Z,0.70
2023-02-26T16:07:14.616Z,0.57
2023-02-26T16:10:05.184Z,0.30
2023-02-26T16:12:38.456Z,0.30
2023-02-26T16:15:12.535Z,0.40
2023-02-26T16:17:43.092Z,0.50
2023-02-26T16:20:17.023Z,0.30
2023-02-26T16:22:50.519Z,0.50
2023-02-26T16:25:24.996Z,0.47
2023-02-26T16:28:00.906Z,0.40
2023-02-26T16:30:35.772Z,0.50
2023-02-26T16:33:03.035Z,0.60
2023-02-26T16:35:36.977Z,0.75
2023-02-26T16:38:18.559Z,0.43
2023-02-26T16:40:45.661Z,0.45
2023-02-26T16:43:35.479Z,0.60
2023-02-26T16:46:04.666Z,0.70
2023-02-26T16:49:07.973Z,0.60
2023-02-26T16:51:37.916Z,0.80
2023-02-26T16:54:17.667Z,0.37
2023-02-26T16:56:47.651Z,0.45
2023-02-26T16:59:17.124Z,0.57
2023-02-26T17:01:55.426Z,0.40
2023-02-26T17:04:29.560Z,0.57
2023-02-26T17:06:56.615Z,0.40
2023-02-26T17:09:27.791Z,0.93
2023-02-26T17:12:05.655Z,0.40
2023-02-26T17:14:40.402Z,0.68
2023-02-26T17:17:06.833Z,1.00
2023-02-26T17:19:33.807Z,0.50
2023-02-26T17:22:00.708Z,2.13
2023-02-26T17:24:32.498Z,0.93
2023-02-26T17:26:59.768Z,1.08
2023-02-26T17:29:32.494Z,1.70
2023-02-26T17:31:58.925Z,1.20
2023-02-26T17:34:25.319Z,1.77
2023-02-26T17:36:53.227Z,1.27
2023-02-26T17:39:19.529Z,1.23
2023-02-26T17:41:45.948Z,1.20
2023-02-26T17:44:12.312Z,1.40
2023-02-26T17:46:38.732Z,1.05
2023-02-26T17:49:05.068Z,1.02
2023-02-26T17:51:31.544Z,1.63
2023-02-26T17:53:58.132Z,1.08
2023-02-26T17:56:28.155Z,0.90
2023-02-26T17:58:55.894Z,3.87
2023-02-26T18:01:29.898Z,2.80
2023-02-26T18:03:57.341Z,0.98
2023-02-26T18:06:25.220Z,1.10
2023-02-26T18:08:52.211Z,1.00
2023-02-26T18:11:20.234Z,0.82
2023-02-26T18:13:46.773Z,0.90
2023-02-26T18:16:34.684Z,1.10
2023-02-26T18:19:01.991Z,1.63
2023-02-26T18:21:28.946Z,1.20
2023-02-26T18:23:57.699Z,1.58
2023-02-26T18:26:27.493Z,1.80
2023-02-26T18:28:55.708Z,1.08
2023-02-26T18:31:23.329Z,10.30
2023-02-26T18:33:49.811Z,1.80
2023-02-26T18:36:34.256Z,1.10
2023-02-26T18:39:06.015Z,0.73
2023-02-26T18:41:32.614Z,0.85
2023-02-26T18:43:59.181Z,0.95
2023-02-26T18:46:26.841Z,1.08
2023-02-26T18:48:53.353Z,0.88
2023-02-26T18:51:19.638Z,0.90
2023-02-26T18:53:45.962Z,0.80
2023-02-26T18:56:12.395Z,1.27
2023-02-26T18:58:40.440Z,0.60
2023-02-26T19:01:07.321Z,0.80
2023-02-26T19:03:33.728Z,0.98
2023-02-26T19:06:02.753Z,0.68
2023-02-26T19:08:30.183Z,0.80
2023-02-26T19:10:57.636Z,1.27
2023-02-26T19:13:24.791Z,0.70
2023-02-26T19:15:51.297Z,0.80
2023-02-26T19:18:17.979Z,1.00
2023-02-26T19:20:44.367Z,0.75
2023-02-26T19:23:10.686Z,0.82
2023-02-26T19:25:37.944Z,0.80
2023-02-26T19:28:04.906Z,0.93
2023-02-26T19:30:31.497Z,0.65
2023-02-26T19:32:58.098Z,0.80
2023-02-26T19:35:27.382Z,1.33
2023-02-26T19:37:54.203Z,0.77
2023-02-26T19:40:20.677Z,0.77
2023-02-26T19:42:47.285Z,1.88
2023-02-26T19:45:17.298Z,1.08
2023-02-26T19:47:43.845Z,0.90
2023-02-26T19:50:11.186Z,0.90
2023-02-26T19:52:37.486Z,1.27
2023-02-26T19:55:05.875Z,1.33
2023-02-26T19:57:32.218Z,1.90
2023-02-26T19:59:59.482Z,1.33
2023-02-26T20:02:26.634Z,2.05
2023-02-26T20:04:53.348Z,1.60
2023-02-26T20:07:19.722Z,1.80
2023-02-26T20:09:47.589Z,1.70
2023-02-26T20:12:15.304Z,2.13
2023-02-26T20:14:41.640Z,1.50
2023-02-26T20:17:07.994Z,1.40
2023-02-26T20:19:34.305Z,1.75
2023-02-26T20:22:00.825Z,1.30
2023-02-26T20:24:27.125Z,1.63
2023-02-26T20:26:53.490Z,1.98
2023-02-26T20:29:20.310Z,1.67
2023-02-26T20:31:49.406Z,1.58
2023-02-26T20:34:19.004Z,1.33
2023-02-26T20:36:47.343Z,1.40
2023-02-26T20:39:15.035Z,1.73
2023-02-26T20:41:41.802Z,1.95
2023-02-26T20:44:08.127Z,1.27
2023-02-26T20:46:35.779Z,1.35
2023-02-26T20:49:03.368Z,1.42
2023-02-26T20:51:29.975Z,1.00
2023-02-26T20:53:56.350Z,1.63
2023-02-26T20:56:22.684Z,1.77
2023-02-26T20:58:49.993Z,1.50
2023-02-26T21:01:16.296Z,1.30
2023-02-26T21:03:42.610Z,1.20
2023-02-26T21:06:10.049Z,1.40
2023-02-26T21:08:36.410Z,1.50
2023-02-26T21:11:02.709Z,1.90
2023-02-26T21:13:29.030Z,1.60
2023-02-26T21:15:55.403Z,1.63
2023-02-26T21:18:21.692Z,1.80
2023-02-26T21:20:50.176Z,2.08
2023-02-26T21:23:16.525Z,2.13
2023-02-26T21:25:43.197Z,2.53
2023-02-26T21:28:09.492Z,2.25
2023-02-26T21:30:36.075Z,2.15
2023-02-26T21:33:02.800Z,1.75
2023-02-26T21:35:29.164Z,1.83
2023-02-26T21:37:55.458Z,1.35
2023-02-26T21:40:22.836Z,1.92
2023-02-26T21:42:49.250Z,1.83
2023-02-26T21:45:15.602Z,2.97
2023-02-26T21:47:41.966Z,2.22
2023-02-26T21:50:08.841Z,1.40
2023-02-26T21:52:35.158Z,1.02
2023-02-26T21:55:01.710Z,1.75
2023-02-26T21:57:28.330Z,1.70
2023-02-26T21:59:54.696Z,1.33
2023-02-26T22:02:21.351Z,2.03
2023-02-26T22:04:47.869Z,2.53
2023-02-26T22:07:14.209Z,1.55
2023-02-26T22:09:40.546Z,2.45
2023-02-26T22:12:07.157Z,1.40
2023-02-26T22:14:33.517Z,1.80
2023-02-26T22:16:59.850Z,1.50
2023-02-26T22:19:26.238Z,1.95
2023-02-26T22:21:52.569Z,2.00
2023-02-26T22:24:18.849Z,1.65
2023-02-26T22:26:46.825Z,2.15
2023-02-26T22:29:13.458Z,1.50
2023-02-26T22:31:39.760Z,1.67
2023-02-26T22:34:06.172Z,1.55
2023-02-26T22:36:34.698Z,1.48
2023-02-26T22:39:00.993Z,1.52
2023-02-26T22:41:27.380Z,1.88
2023-02-26T22:43:54.834Z,1.20
2023-02-26T22:46:24.520Z,1.20
2023-02-26T22:48:51.038Z,1.42
2023-02-26T22:51:17.311Z,1.25
2023-02-26T22:53:43.648Z,0.95
2023-02-26T22:56:10.772Z,1.35
2023-02-26T22:58:37.256Z,1.30
2023-02-26T23:01:06.349Z,1.20
2023-02-26T23:03:34.421Z,1.00
2023-02-26T23:06:01.053Z,1.10
2023-02-26T23:08:27.830Z,0.90
2023-02-26T23:10:56.510Z,1.08
2023-02-26T23:13:23.610Z,1.05
2023-02-26T23:15:49.963Z,1.13
2023-02-26T23:18:16.733Z,0.93
2023-02-26T23:20:43.693Z,1.02
2023-02-26T23:23:09.979Z,1.15
2023-02-26T23:25:36.291Z,1.40
2023-02-26T23:28:02.612Z,1.08
2023-02-26T23:30:29.045Z,0.90
2023-02-26T23:32:56.223Z,1.00
2023-02-26T23:35:22.632Z,1.13
2023-02-26T23:37:48.984Z,1.27
2023-02-26T23:40:15.367Z,0.88
2023-02-26T23:42:42.254Z,0.98
2023-02-26T23:45:09.509Z,1.02
2023-02-26T23:47:36.344Z,1.25
2023-02-26T23:50:03.127Z,0.80
2023-02-26T23:52:29.418Z,1.00
2023-02-26T23:54:56.684Z,1.02
2023-02-26T23:57:23.140Z,1.15
2023-02-26T23:59:49.589Z,1.08
